createdAt,value
2023-05-06T00:00:06.387Z,13.41
2023-05-06T00:02:39.687Z,13.44
2023-05-06T00:05:08.756Z,13.45
2023-05-06T00:07:36.975Z,13.37
2023-05-06T00:10:07.218Z,13.44
2023-05-06T00:12:34.927Z,13.52
2023-05-06T00:15:02.703Z,13.56
2023-05-06T00:17:30.633Z,13.42
2023-05-06T00:19:59.023Z,13.18
2023-05-06T00:22:26.895Z,13.57
2023-05-06T00:24:54.784Z,13.64
2023-05-06T00:27:23.981Z,13.42
2023-05-06T00:29:51.999Z,13.47
2023-05-06T00:32:19.759Z,13.59
2023-05-06T00:34:48.293Z,13.63
2023-05-06T00:37:16.198Z,13.46
2023-05-06T00:39:43.969Z,13.52
2023-05-06T00:42:11.850Z,13.65
2023-05-06T00:44:40.993Z,13.65
2023-05-06T00:47:09.306Z,13.60
2023-05-06T00:49:37.273Z,13.61
2023-05-06T00:52:05.754Z,13.56
2023-05-06T00:54:33.802Z,13.49
2023-05-06T00:57:02.022Z,13.59
2023-05-06T00:59:30.369Z,13.44
2023-05-06T01:02:01.020Z,13.42
2023-05-06T01:04:30.779Z,13.42
2023-05-06T01:07:09.522Z,13.42
2023-05-06T01:09:43.795Z,13.31
2023-05-06T01:12:20.381Z,13.35
2023-05-06T01:14:57.092Z,13.23
2023-05-06T01:17:28.919Z,13.12
2023-05-06T01:20:01.747Z,13.24
2023-05-06T01:22:31.111Z,12.95
2023-05-06T01:25:00.239Z,13.08
2023-05-06T01:27:28.070Z,12.97
2023-05-06T01:29:56.117Z,13.00
2023-05-06T01:32:41.735Z,13.15
2023-05-06T01:35:19.489Z,13.15
2023-05-06T01:37:53.575Z,13.11
2023-05-06T01:40:27.233Z,12.98
2023-05-06T01:42:56.195Z,13.17
2023-05-06T01:45:28.615Z,13.13
2023-05-06T01:47:57.893Z,13.09
2023-05-06T01:50:26.580Z,13.13
2023-05-06T01:53:00.007Z,13.07
2023-05-06T01:55:29.595Z,13.19
2023-05-06T01:57:57.794Z,13.20
2023-05-06T02:00:26.464Z,13.16
2023-05-06T02:02:54.611Z,13.20
2023-05-06T02:05:22.704Z,13.07
2023-05-06T02:07:55.483Z,13.04
2023-05-06T02:10:23.522Z,12.99
2023-05-06T02:12:59.773Z,12.96
2023-05-06T02:15:27.766Z,12.90
2023-05-06T02:17:57.148Z,12.88
2023-05-06T02:20:27.230Z,12.64
2023-05-06T02:22:55.114Z,12.56
2023-05-06T02:25:23.355Z,12.57
2023-05-06T02:27:51.232Z,12.66
2023-05-06T02:30:20.447Z,12.67
2023-05-06T02:32:49.301Z,12.67
2023-05-06T02:35:17.191Z,12.57
2023-05-06T02:37:45.051Z,12.58
2023-05-06T02:40:13.504Z,12.61
2023-05-06T02:42:41.461Z,12.56
2023-05-06T02:45:10.355Z,12.51
2023-05-06T02:47:40.510Z,12.61
2023-05-06T02:50:08.824Z,12.53
2023-05-06T02:52:36.645Z,12.52
2023-05-06T02:55:04.906Z,12.33
2023-05-06T02:57:33.306Z,12.46
2023-05-06T03:00:01.252Z,12.43
2023-05-06T03:02:29.160Z,12.43
2023-05-06T03:04:58.408Z,12.37
2023-05-06T03:07:26.313Z,12.22
2023-05-06T03:09:54.381Z,12.07
2023-05-06T03:12:22.564Z,11.90
2023-05-06T03:14:50.829Z,12.00
2023-05-06T03:17:18.629Z,11.91
2023-05-06T03:19:46.415Z,11.71
2023-05-06T03:22:16.681Z,11.68
2023-05-06T03:24:46.786Z,11.91
2023-05-06T03:27:14.585Z,11.91
2023-05-06T03:29:43.980Z,11.45
2023-05-06T03:32:13.631Z,11.92
2023-05-06T03:34:44.232Z,11.21
2023-05-06T03:37:18.824Z,11.85
2023-05-06T03:39:51.093Z,11.72
2023-05-06T03:42:21.011Z,11.87
2023-05-06T03:44:49.657Z,11.87
2023-05-06T03:47:18.776Z,11.74
2023-05-06T03:49:47.043Z,11.81
2023-05-06T03:52:14.986Z,11.67
2023-05-06T03:54:44.357Z,11.49
2023-05-06T03:57:12.295Z,11.51
2023-05-06T03:59:40.982Z,11.51
2023-05-06T04:02:08.857Z,11.48
2023-05-06T04:04:38.413Z,11.56
2023-05-06T04:07:06.167Z,11.52
2023-05-06T04:09:34.103Z,11.43
2023-05-06T04:12:08.018Z,11.31
2023-05-06T04:14:36.907Z,11.45
2023-05-06T04:17:05.591Z,11.20
2023-05-06T04:19:33.559Z,11.11
2023-05-06T04:22:02.161Z,11.44
2023-05-06T04:24:31.371Z,11.66
2023-05-06T04:27:00.716Z,11.51
2023-05-06T04:29:30.748Z,11.60
2023-05-06T04:32:04.698Z,11.60
2023-05-06T04:34:36.906Z,11.59
2023-05-06T04:37:07.295Z,11.57
2023-05-06T04:39:49.574Z,10.97
2023-05-06T04:42:18.046Z,11.55
2023-05-06T04:44:54.295Z,11.54
2023-05-06T04:47:26.991Z,11.70
2023-05-06T04:49:56.026Z,11.70
2023-05-06T04:52:26.126Z,11.71
2023-05-06T04:54:54.352Z,11.83
2023-05-06T04:57:22.402Z,11.85
2023-05-06T04:59:51.694Z,11.50
2023-05-06T05:02:21.133Z,11.75
2023-05-06T05:04:49.183Z,11.81
2023-05-06T05:07:17.308Z,12.01
2023-05-06T05:09:45.429Z,12.12
2023-05-06T05:12:13.448Z,12.22
2023-05-06T05:14:44.989Z,12.26
2023-05-06T05:17:14.086Z,12.35
2023-05-06T05:19:44.227Z,12.49
2023-05-06T05:22:13.446Z,12.56
2023-05-06T05:24:41.460Z,12.64
2023-05-06T05:27:09.314Z,12.71
2023-05-06T05:29:37.589Z,12.83
2023-05-06T05:32:07.977Z,12.84
2023-05-06T05:34:36.676Z,12.64
2023-05-06T05:37:06.035Z,12.49
2023-05-06T05:39:35.094Z,12.78
2023-05-06T05:42:03.646Z,12.76
2023-05-06T05:44:32.476Z,12.83
2023-05-06T05:47:00.888Z,12.92
2023-05-06T05:49:30.043Z,13.02
2023-05-06T05:51:59.668Z,13.07
2023-05-06T05:54:30.365Z,13.16
2023-05-06T05:56:59.047Z,13.27
2023-05-06T05:59:28.567Z,13.37
2023-05-06T06:02:00.241Z,13.37
2023-05-06T06:04:28.878Z,13.37
2023-05-06T06:06:57.990Z,13.44
2023-05-06T06:09:26.568Z,13.41
2023-05-06T06:11:56.006Z,13.10
2023-05-06T06:14:25.636Z,13.23
2023-05-06T06:16:54.433Z,13.26
2023-05-06T06:19:23.482Z,13.10
2023-05-06T06:21:52.257Z,13.33
2023-05-06T06:24:20.985Z,13.36
2023-05-06T06:26:48.838Z,13.56
2023-05-06T06:29:18.065Z,13.52
2023-05-06T06:31:45.952Z,13.70
2023-05-06T06:34:14.541Z,13.97
2023-05-06T06:36:45.114Z,13.99
2023-05-06T06:39:13.382Z,14.00
2023-05-06T06:41:41.724Z,14.18
2023-05-06T06:44:09.548Z,14.21
2023-05-06T06:46:38.836Z,14.20
2023-05-06T06:49:06.680Z,14.36
2023-05-06T06:51:34.537Z,14.32
2023-05-06T06:54:02.437Z,14.41
2023-05-06T06:56:30.716Z,14.27
2023-05-06T06:58:58.558Z,14.34
2023-05-06T07:01:26.594Z,14.76
2023-05-06T07:03:55.897Z,15.21
2023-05-06T07:06:23.826Z,15.31
2023-05-06T07:08:51.616Z,14.71
2023-05-06T07:11:19.668Z,15.27
2023-05-06T07:13:47.492Z,15.16
2023-05-06T07:16:15.333Z,15.24
2023-05-06T07:18:43.180Z,15.20
2023-05-06T07:21:12.406Z,14.83
2023-05-06T07:23:40.268Z,14.76
2023-05-06T07:26:08.144Z,14.72
2023-05-06T07:28:36.038Z,14.75
2023-05-06T07:31:04.000Z,14.43
2023-05-06T07:33:31.811Z,14.57
2023-05-06T07:35:59.784Z,15.04
2023-05-06T07:38:29.094Z,15.39
2023-05-06T07:40:57.194Z,15.66
2023-05-06T07:43:25.108Z,16.03
2023-05-06T07:45:53.026Z,16.24
2023-05-06T07:48:21.048Z,15.89
2023-05-06T07:50:48.928Z,16.05
2023-05-06T07:53:16.701Z,16.10
2023-05-06T07:55:45.928Z,16.17
2023-05-06T07:58:13.827Z,16.23
2023-05-06T08:00:41.989Z,16.16
2023-05-06T08:03:09.974Z,16.19
2023-05-06T08:05:37.935Z,16.41
2023-05-06T08:08:06.557Z,16.06
2023-05-06T08:10:34.510Z,16.49
2023-05-06T08:13:03.865Z,16.76
2023-05-06T08:15:31.717Z,16.83
2023-05-06T08:18:06.974Z,16.85
2023-05-06T08:20:42.201Z,16.83
2023-05-06T08:23:10.191Z,16.74
2023-05-06T08:25:38.031Z,16.62
2023-05-06T08:28:07.290Z,16.60
2023-05-06T08:30:35.082Z,16.28
2023-05-06T08:33:03.555Z,16.73
2023-05-06T08:35:31.465Z,16.95
2023-05-06T08:37:59.251Z,15.42
2023-05-06T08:40:29.386Z,17.05
2023-05-06T08:42:59.959Z,16.97
2023-05-06T08:45:30.671Z,16.93
2023-05-06T08:47:58.537Z,16.83
2023-05-06T08:50:26.899Z,16.80
2023-05-06T08:52:55.291Z,16.85
2023-05-06T08:55:27.602Z,17.11
2023-05-06T08:57:57.302Z,17.36
2023-05-06T09:00:25.542Z,16.83
2023-05-06T09:02:54.912Z,16.93
2023-05-06T09:05:22.938Z,17.21
2023-05-06T09:07:50.725Z,17.40
2023-05-06T09:10:19.145Z,17.64
2023-05-06T09:12:47.260Z,17.68
2023-05-06T09:15:15.176Z,17.87
2023-05-06T09:17:43.207Z,18.42
2023-05-06T09:20:14.202Z,18.63
2023-05-06T09:22:42.720Z,18.74
2023-05-06T09:25:12.110Z,19.14
2023-05-06T09:27:40.675Z,18.74
2023-05-06T09:30:11.636Z,18.78
2023-05-06T09:32:40.431Z,18.93
2023-05-06T09:35:09.972Z,18.63
2023-05-06T09:37:39.600Z,18.24
2023-05-06T09:40:09.384Z,18.01
2023-05-06T09:42:37.380Z,18.30
2023-05-06T09:45:11.142Z,18.26
2023-05-06T09:47:39.304Z,17.94
2023-05-06T09:50:09.958Z,17.74
2023-05-06T09:52:39.173Z,18.15
2023-05-06T09:55:08.650Z,18.28
2023-05-06T09:57:38.323Z,17.83
2023-05-06T10:00:09.903Z,17.91
2023-05-06T10:02:41.645Z,17.70
2023-05-06T10:05:11.597Z,17.74
2023-05-06T10:07:41.809Z,17.62
2023-05-06T10:10:12.105Z,17.84
2023-05-06T10:12:40.629Z,18.18
2023-05-06T10:15:09.982Z,18.52
2023-05-06T10:17:41.807Z,18.61
2023-05-06T10:20:14.532Z,18.80
2023-05-06T10:22:53.376Z,18.77
2023-05-06T10:25:30.454Z,18.82
2023-05-06T10:27:58.900Z,18.71
2023-05-06T10:30:29.568Z,18.14
2023-05-06T10:32:58.537Z,18.42
2023-05-06T10:35:36.891Z,18.57
2023-05-06T10:38:10.542Z,18.54
2023-05-06T10:40:39.197Z,18.80
2023-05-06T10:43:25.132Z,18.93
2023-05-06T10:46:05.249Z,18.67
2023-05-06T10:48:33.509Z,19.12
2023-05-06T10:51:27.230Z,19.32
2023-05-06T10:54:02.366Z,19.29
2023-05-06T10:56:31.567Z,19.69
2023-05-06T10:59:04.154Z,19.74
2023-05-06T11:01:32.144Z,19.54
2023-05-06T11:04:05.963Z,19.79
2023-05-06T11:06:39.578Z,19.69
2023-05-06T11:09:17.667Z,19.48
2023-05-06T11:11:54.450Z,19.39
2023-05-06T11:14:30.485Z,19.68
2023-05-06T11:16:59.317Z,19.51
2023-05-06T11:19:28.196Z,18.96
2023-05-06T11:21:58.263Z,19.51
2023-05-06T11:24:29.234Z,19.59
2023-05-06T11:26:58.027Z,19.23
2023-05-06T11:29:27.105Z,19.08
2023-05-06T11:31:55.082Z,19.06
2023-05-06T11:34:25.997Z,19.27
2023-05-06T11:36:58.546Z,19.14
2023-05-06T11:39:30.721Z,18.93
2023-05-06T11:42:03.903Z,18.85
2023-05-06T11:44:33.271Z,19.07
2023-05-06T11:47:04.753Z,18.69
2023-05-06T11:49:38.163Z,19.24
2023-05-06T11:52:06.595Z,19.71
2023-05-06T11:54:39.235Z,20.05
2023-05-06T11:57:07.399Z,20.08
2023-05-06T11:59:37.551Z,19.20
2023-05-06T12:02:06.525Z,19.57
2023-05-06T12:04:42.374Z,19.82
2023-05-06T12:07:12.037Z,19.64
2023-05-06T12:09:43.778Z,19.42
2023-05-06T12:12:13.409Z,19.39
2023-05-06T12:14:41.604Z,19.21
2023-05-06T12:17:09.656Z,19.31
2023-05-06T12:19:37.870Z,19.21
2023-05-06T12:22:24.806Z,19.44
2023-05-06T12:24:54.116Z,19.73
2023-05-06T12:27:32.709Z,19.41
2023-05-06T12:30:00.640Z,20.29
2023-05-06T12:32:28.538Z,20.03
2023-05-06T12:34:56.525Z,20.32
2023-05-06T12:37:30.019Z,20.32
2023-05-06T12:39:59.739Z,19.94
2023-05-06T12:42:27.658Z,20.37
2023-05-06T12:44:55.756Z,20.15
2023-05-06T12:47:25.059Z,19.68
2023-05-06T12:49:54.425Z,19.57
2023-05-06T12:52:24.003Z,19.95
2023-05-06T12:54:53.091Z,19.45
2023-05-06T12:57:22.587Z,19.48
2023-05-06T12:59:51.307Z,19.22
2023-05-06T13:02:19.546Z,19.50
2023-05-06T13:04:47.380Z,19.78
2023-05-06T13:07:15.594Z,19.81
2023-05-06T13:09:44.432Z,19.91
2023-05-06T13:12:12.338Z,19.89
2023-05-06T13:14:41.630Z,19.93
2023-05-06T13:17:09.820Z,19.62
2023-05-06T13:19:37.829Z,19.68
2023-05-06T13:22:05.649Z,19.88
2023-05-06T13:24:33.609Z,20.10
2023-05-06T13:27:02.161Z,19.51
2023-05-06T13:29:30.533Z,19.73
2023-05-06T13:32:00.702Z,19.93
2023-05-06T13:34:28.427Z,19.93
2023-05-06T13:36:56.855Z,19.89
2023-05-06T13:39:25.035Z,20.18
2023-05-06T13:41:54.209Z,19.79
2023-05-06T13:44:22.784Z,20.02
2023-05-06T13:46:50.785Z,20.38
2023-05-06T13:49:20.611Z,20.47
2023-05-06T13:51:48.773Z,20.19
2023-05-06T13:54:16.680Z,20.56
2023-05-06T13:56:44.796Z,20.51
2023-05-06T13:59:13.995Z,20.15
2023-05-06T14:01:42.720Z,19.91
2023-05-06T14:04:10.687Z,19.87
2023-05-06T14:06:39.832Z,19.91
2023-05-06T14:09:08.329Z,19.85
2023-05-06T14:11:36.116Z,19.82
2023-05-06T14:14:04.350Z,20.14
2023-05-06T14:16:32.415Z,20.06
2023-05-06T14:19:00.382Z,19.30
2023-05-06T14:21:28.382Z,19.64
2023-05-06T14:23:58.128Z,19.46
2023-05-06T14:26:26.819Z,19.30
2023-05-06T14:28:54.718Z,19.52
2023-05-06T14:31:23.288Z,19.85
2023-05-06T14:33:51.249Z,20.17
2023-05-06T14:36:19.860Z,19.88
2023-05-06T14:38:47.824Z,19.74
2023-05-06T14:41:17.058Z,19.49
2023-05-06T14:43:45.354Z,19.39
2023-05-06T14:46:14.415Z,19.25
2023-05-06T14:48:43.460Z,19.45
2023-05-06T14:51:11.316Z,19.26
2023-05-06T14:53:39.121Z,19.37
2023-05-06T14:56:09.509Z,19.03
2023-05-06T14:58:39.217Z,18.64
2023-05-06T15:01:07.280Z,18.95
2023-05-06T15:03:36.205Z,19.09
2023-05-06T15:06:04.509Z,19.48
2023-05-06T15:08:32.528Z,18.93
2023-05-06T15:11:03.027Z,19.21
2023-05-06T15:13:31.922Z,19.28
2023-05-06T15:16:01.082Z,19.23
2023-05-06T15:18:29.056Z,19.29
2023-05-06T15:20:58.682Z,19.48
2023-05-06T15:23:26.609Z,19.43
2023-05-06T15:25:54.903Z,19.67
2023-05-06T15:28:24.589Z,19.87
2023-05-06T15:30:52.801Z,19.38
2023-05-06T15:33:22.090Z,19.36
2023-05-06T15:35:50.300Z,19.82
2023-05-06T15:38:18.217Z,19.69
2023-05-06T15:40:51.036Z,19.43
2023-05-06T15:43:23.716Z,19.20
2023-05-06T15:45:52.155Z,19.26
2023-05-06T15:48:20.085Z,19.18
2023-05-06T15:50:49.243Z,18.82
2023-05-06T15:53:18.149Z,18.94
2023-05-06T15:55:54.553Z,19.38
2023-05-06T15:58:25.342Z,19.12
2023-05-06T16:00:53.250Z,19.35
2023-05-06T16:03:21.378Z,19.22
2023-05-06T16:05:50.922Z,18.83
2023-05-06T16:08:18.826Z,19.20
2023-05-06T16:10:47.164Z,18.69
2023-05-06T16:13:15.092Z,19.04
2023-05-06T16:15:43.285Z,18.98
2023-05-06T16:18:11.602Z,18.63
2023-05-06T16:20:39.642Z,18.73
2023-05-06T16:23:08.884Z,19.00
2023-05-06T16:25:38.280Z,18.59
2023-05-06T16:28:06.608Z,18.41
2023-05-06T16:30:34.503Z,18.77
2023-05-06T16:33:02.516Z,19.09
2023-05-06T16:35:30.392Z,18.55
2023-05-06T16:37:58.228Z,18.60
2023-05-06T16:40:27.801Z,19.07
2023-05-06T16:42:55.722Z,18.65
2023-05-06T16:45:23.757Z,18.25
2023-05-06T16:47:52.022Z,18.66
2023-05-06T16:50:22.589Z,18.53
2023-05-06T16:52:50.481Z,18.58
2023-05-06T16:55:18.447Z,18.96
2023-05-06T16:57:47.737Z,18.82
2023-05-06T17:00:16.734Z,18.94
2023-05-06T17:02:44.769Z,18.83
2023-05-06T17:05:12.757Z,18.67
2023-05-06T17:07:40.998Z,18.47
2023-05-06T17:10:10.002Z,18.87
2023-05-06T17:12:38.452Z,18.47
2023-05-06T17:15:09.522Z,18.32
2023-05-06T17:17:37.417Z,18.20
2023-05-06T17:20:07.048Z,18.18
2023-05-06T17:22:35.309Z,17.95
2023-05-06T17:25:03.420Z,18.05
2023-05-06T17:27:31.353Z,18.18
2023-05-06T17:30:00.462Z,18.08
2023-05-06T17:32:29.756Z,18.24
2023-05-06T17:34:57.641Z,18.38
2023-05-06T17:37:25.683Z,18.42
2023-05-06T17:39:54.597Z,18.07
2023-05-06T17:42:22.502Z,18.31
2023-05-06T17:44:50.398Z,17.67
2023-05-06T17:47:20.907Z,18.18
2023-05-06T17:49:51.083Z,18.15
2023-05-06T17:52:19.160Z,18.06
2023-05-06T17:54:49.459Z,18.20
2023-05-06T17:57:21.800Z,17.77
2023-05-06T17:59:49.650Z,18.02
2023-05-06T18:02:17.553Z,17.60
2023-05-06T18:04:47.169Z,17.65
2023-05-06T18:07:16.462Z,17.69
2023-05-06T18:09:44.577Z,17.76
2023-05-06T18:12:12.521Z,17.74
2023-05-06T18:14:40.456Z,17.62
2023-05-06T18:17:08.349Z,17.36
2023-05-06T18:19:36.136Z,17.41
2023-05-06T18:22:04.253Z,17.48
2023-05-06T18:24:34.669Z,17.31
2023-05-06T18:27:02.493Z,17.46
2023-05-06T18:29:32.624Z,17.37
2023-05-06T18:32:00.775Z,17.38
2023-05-06T18:34:29.130Z,17.46
2023-05-06T18:36:57.927Z,17.44
2023-05-06T18:39:26.539Z,17.36
2023-05-06T18:41:55.789Z,16.62
2023-05-06T18:44:23.704Z,17.07
2023-05-06T18:46:51.582Z,17.05
2023-05-06T18:49:19.511Z,16.97
2023-05-06T18:51:47.364Z,16.85
2023-05-06T18:54:16.283Z,17.00
2023-05-06T18:56:44.307Z,16.93
2023-05-06T18:59:13.752Z,16.81
2023-05-06T19:01:41.893Z,16.70
2023-05-06T19:04:09.843Z,16.71
2023-05-06T19:06:38.380Z,16.58
2023-05-06T19:09:07.129Z,16.90
2023-05-06T19:11:35.185Z,16.63
2023-05-06T19:14:03.101Z,16.86
2023-05-06T19:16:32.413Z,16.58
2023-05-06T19:19:02.443Z,16.71
2023-05-06T19:21:30.275Z,16.60
2023-05-06T19:23:59.834Z,16.51
2023-05-06T19:26:27.773Z,16.47
2023-05-06T19:28:55.699Z,16.29
2023-05-06T19:31:23.847Z,16.35
2023-05-06T19:33:53.051Z,16.17
2023-05-06T19:36:21.024Z,16.15
2023-05-06T19:38:48.995Z,15.99
2023-05-06T19:41:16.802Z,16.05
2023-05-06T19:43:45.611Z,15.82
2023-05-06T19:46:13.643Z,15.97
2023-05-06T19:48:41.724Z,15.69
2023-05-06T19:51:11.015Z,15.71
2023-05-06T19:53:38.982Z,15.49
2023-05-06T19:56:10.594Z,15.49
2023-05-06T19:58:38.770Z,15.31
2023-05-06T20:01:06.663Z,15.41
2023-05-06T20:03:34.741Z,15.39
2023-05-06T20:06:03.478Z,15.37
2023-05-06T20:08:33.287Z,15.37
2023-05-06T20:11:01.103Z,15.40
2023-05-06T20:13:29.064Z,15.28
2023-05-06T20:15:57.425Z,15.17
2023-05-06T20:18:25.597Z,14.89
2023-05-06T20:20:53.506Z,14.97
2023-05-06T20:23:21.368Z,15.01
2023-05-06T20:25:50.696Z,15.10
2023-05-06T20:28:19.413Z,15.24
2023-05-06T20:30:48.612Z,15.24
2023-05-06T20:33:16.601Z,14.93
2023-05-06T20:35:44.488Z,14.56
2023-05-06T20:38:12.444Z,14.88
2023-05-06T20:40:40.338Z,14.92
2023-05-06T20:43:09.614Z,14.89
2023-05-06T20:45:37.790Z,14.54
2023-05-06T20:48:06.202Z,14.37
2023-05-06T20:50:34.105Z,14.70
2023-05-06T20:53:02.318Z,14.46
2023-05-06T20:55:30.567Z,14.39
2023-05-06T20:57:58.551Z,14.18
2023-05-06T21:00:27.798Z,14.05
2023-05-06T21:02:55.749Z,14.52
2023-05-06T21:05:23.769Z,13.58
2023-05-06T21:07:51.635Z,14.23
2023-05-06T21:10:19.623Z,14.25
2023-05-06T21:12:51.677Z,14.40
2023-05-06T21:15:19.610Z,14.30
2023-05-06T21:17:49.896Z,14.58
2023-05-06T21:20:19.337Z,14.38
2023-05-06T21:22:47.253Z,14.53
2023-05-06T21:25:15.279Z,14.45
2023-05-06T21:27:43.083Z,14.67
2023-05-06T21:30:11.437Z,14.25
2023-05-06T21:32:39.365Z,14.25
2023-05-06T21:35:09.625Z,14.26
2023-05-06T21:37:37.755Z,14.14
2023-05-06T21:40:06.720Z,14.31
2023-05-06T21:42:34.497Z,14.56
2023-05-06T21:45:02.307Z,14.60
2023-05-06T21:47:30.382Z,14.43
2023-05-06T21:49:58.339Z,14.01
2023-05-06T21:52:27.503Z,14.19
2023-05-06T21:54:56.315Z,13.60
2023-05-06T21:57:24.143Z,13.62
2023-05-06T21:59:52.065Z,13.91
2023-05-06T22:02:20.132Z,13.88
2023-05-06T22:04:48.117Z,13.95
2023-05-06T22:07:16.556Z,13.99
2023-05-06T22:09:46.029Z,13.87
2023-05-06T22:12:15.427Z,13.62
2023-05-06T22:14:43.270Z,13.76
2023-05-06T22:17:12.297Z,13.46
2023-05-06T22:19:41.807Z,13.29
2023-05-06T22:22:10.399Z,13.45
2023-05-06T22:24:38.253Z,13.40
2023-05-06T22:27:07.617Z,13.25
2023-05-06T22:29:36.074Z,13.19
2023-05-06T22:32:04.114Z,13.08
2023-05-06T22:34:32.080Z,13.31
2023-05-06T22:37:01.007Z,13.13
2023-05-06T22:39:29.594Z,13.30
2023-05-06T22:41:57.446Z,13.40
2023-05-06T22:44:26.715Z,13.29
2023-05-06T22:46:54.826Z,13.46
2023-05-06T22:49:23.598Z,13.66
2023-05-06T22:51:51.585Z,13.68
2023-05-06T22:54:19.674Z,13.56
2023-05-06T22:56:47.531Z,13.68
2023-05-06T22:59:15.430Z,13.26
2023-05-06T23:01:44.824Z,13.76
2023-05-06T23:04:13.063Z,13.58
2023-05-06T23:06:41.125Z,12.96
2023-05-06T23:09:09.527Z,13.62
2023-05-06T23:11:37.334Z,12.86
2023-05-06T23:14:06.499Z,13.53
2023-05-06T23:16:34.512Z,13.38
2023-05-06T23:19:03.854Z,13.18
2023-05-06T23:21:31.710Z,13.37
2023-05-06T23:23:59.578Z,13.25
2023-05-06T23:26:28.053Z,13.17
2023-05-06T23:28:56.030Z,13.04
2023-05-06T23:31:23.903Z,13.25
2023-05-06T23:33:51.894Z,13.11
2023-05-06T23:36:21.262Z,13.19
2023-05-06T23:38:49.156Z,13.41
2023-05-06T23:41:17.052Z,13.30
2023-05-06T23:43:44.977Z,13.65
2023-05-06T23:46:12.834Z,13.62
2023-05-06T23:48:40.718Z,13.13
2023-05-06T23:51:08.611Z,13.22
2023-05-06T23:53:37.910Z,13.10
2023-05-06T23:56:06.564Z,13.42
2023-05-06T23:58:34.608Z,12.98
